Time;durP1;ratioP1;P1;durP2;ratioP2;P2;SDS_P1;SDS_P2;PMS_P1;PMS_P2;Temp;Humidity;BMP_temperature;BMP_pressure;BME280_temperature;BME280_humidity;BME280_pressure;Samples;Min_cycle;Max_cycle;Signal;HPM_P1;HPM_P2
2022/12/26 00:01:47;;;;;;;;;;;12.80;99.90;;;;;;4976071;28;20331;-80
2022/12/26 00:04:12;;;;;;;;;;;12.70;99.90;;;;;;4993987;28;20005;-81
2022/12/26 00:06:38;;;;;;;;;;;12.70;99.90;;;;;;4993695;28;20359;-81
2022/12/26 00:09:04;;;;;;;;;;;12.60;99.90;;;;;;4976492;28;19910;-80
2022/12/26 00:11:30;;;;;;;;;;;12.50;99.90;;;;;;4976313;28;19914;-81
2022/12/26 00:13:57;;;;;;;;;;;12.60;99.90;;;;;;4993581;28;20461;-80
2022/12/26 00:16:22;;;;;;;;;;;12.50;99.90;;;;;;4993481;28;19916;-81
2022/12/26 00:18:48;;;;;;;;;;;12.50;99.90;;;;;;4993706;28;19910;-81
2022/12/26 00:21:14;;;;;;;;;;;12.50;99.90;;;;;;4993346;28;19910;-80
2022/12/26 00:23:40;;;;;;;;;;;12.50;99.90;;;;;;4993620;28;19909;-81
2022/12/26 00:26:07;;;;;;;;;;;12.50;99.90;;;;;;4976036;28;19910;-81
2022/12/26 00:28:33;;;;;;;;;;;12.50;99.90;;;;;;4976203;28;19941;-80
2022/12/26 00:31:01;;;;;;;;;;;12.60;99.90;;;;;;4992921;28;19964;-79
2022/12/26 00:33:27;;;;;;;;;;;12.60;99.90;;;;;;4993473;28;19909;-81
2022/12/26 00:35:52;;;;;;;;;;;12.60;99.90;;;;;;4993623;28;19910;-80
2022/12/26 00:38:18;;;;;;;;;;;12.70;99.90;;;;;;4993287;28;19932;-80
2022/12/26 00:40:43;;;;;;;;;;;12.70;99.90;;;;;;4975744;28;19910;-80
2022/12/26 00:43:09;;;;;;;;;;;12.80;99.90;;;;;;4993403;28;19910;-80
2022/12/26 00:45:35;;;;;;;;;;;12.80;99.90;;;;;;4993584;28;19917;-80
2022/12/26 00:48:00;;;;;;;;;;;12.80;99.90;;;;;;4993568;28;20414;-81
2022/12/26 00:50:26;;;;;;;;;;;12.80;99.90;;;;;;4993138;28;19924;-80
2022/12/26 00:52:52;;;;;;;;;;;12.70;99.90;;;;;;4993227;28;19952;-81
2022/12/26 00:55:17;;;;;;;;;;;12.70;99.90;;;;;;4975970;28;19921;-80
2022/12/26 00:57:43;;;;;;;;;;;12.70;99.90;;;;;;4975973;28;20396;-81
2022/12/26 01:00:08;;;;;;;;;;;12.70;99.90;;;;;;4993349;28;19964;-80
2022/12/26 01:02:37;;;;;;;;;;;12.70;99.90;;;;;;4975617;28;20021;-81
2022/12/26 01:05:03;;;;;;;;;;;12.80;99.90;;;;;;4993092;28;19910;-79
2022/12/26 01:07:33;;;;;;;;;;;12.80;99.90;;;;;;4993268;28;19910;-80
2022/12/26 01:09:58;;;;;;;;;;;12.80;99.90;;;;;;4979220;28;19913;-81
2022/12/26 01:12:26;;;;;;;;;;;12.70;99.90;;;;;;4996526;28;19933;-81
2022/12/26 01:14:51;;;;;;;;;;;12.80;99.90;;;;;;4996716;28;19914;-80
2022/12/26 01:17:17;;;;;;;;;;;12.80;99.90;;;;;;4979223;28;19921;-80
2022/12/26 01:19:42;;;;;;;;;;;12.80;99.90;;;;;;4996696;28;20245;-81
2022/12/26 01:22:07;;;;;;;;;;;12.80;99.90;;;;;;4996139;28;20052;-81
2022/12/26 01:24:33;;;;;;;;;;;12.80;99.90;;;;;;4996605;28;19910;-80
2022/12/26 01:26:58;;;;;;;;;;;12.90;99.90;;;;;;4996602;28;19909;-80
2022/12/26 01:29:25;;;;;;;;;;;12.80;99.90;;;;;;4996286;28;20271;-81
2022/12/26 01:31:50;;;;;;;;;;;12.80;99.90;;;;;;4978780;28;20449;-80
2022/12/26 01:34:15;;;;;;;;;;;12.90;99.90;;;;;;4978893;28;19917;-80
2022/12/26 01:36:41;;;;;;;;;;;12.80;99.90;;;;;;4979049;28;20371;-81
2022/12/26 01:39:06;;;;;;;;;;;12.80;99.90;;;;;;4978616;28;20295;-80
2022/12/26 01:41:32;;;;;;;;;;;12.90;99.90;;;;;;4995617;28;19913;-80
2022/12/26 01:43:59;;;;;;;;;;;12.90;99.90;;;;;;4978472;28;20421;-80
2022/12/26 01:46:27;;;;;;;;;;;12.90;99.90;;;;;;4978781;28;19917;-80
2022/12/26 01:48:54;;;;;;;;;;;13.00;99.90;;;;;;4995871;28;19997;-80
2022/12/26 01:51:24;;;;;;;;;;;13.00;99.90;;;;;;4985281;23;19926;-86
2022/12/26 01:53:51;;;;;;;;;;;13.10;99.90;;;;;;4959652;28;19915;-86
2022/12/26 01:56:20;;;;;;;;;;;13.10;99.90;;;;;;4959823;28;19910;-85
2022/12/26 01:58:49;;;;;;;;;;;13.10;99.90;;;;;;4976298;28;19910;-86
2022/12/26 02:01:14;;;;;;;;;;;13.20;99.90;;;;;;4975849;28;20290;-87
2022/12/26 02:06:25;;;;;;;;;;;13.10;99.90;;;;;;4976746;28;19961;-87
2022/12/26 02:08:50;;;;;;;;;;;13.10;99.90;;;;;;4958813;28;19914;-86
2022/12/26 02:11:51;;;;;;;;;;;13.10;99.90;;;;;;4995412;28;20000;-87
2022/12/26 02:14:17;;;;;;;;;;;13.10;99.90;;;;;;4957667;28;19910;-86
2022/12/26 02:16:43;;;;;;;;;;;13.00;99.90;;;;;;4973453;28;19916;-87
2022/12/26 02:19:18;;;;;;;;;;;13.00;99.90;;;;;;4976685;28;19914;-87
2022/12/26 02:21:55;;;;;;;;;;;12.90;99.90;;;;;;4962223;28;19958;-85
2022/12/26 02:24:33;;;;;;;;;;;12.90;99.90;;;;;;4958202;28;20442;-86
2022/12/26 02:27:17;;;;;;;;;;;12.90;99.90;;;;;;4958133;28;19910;-87
2022/12/26 02:29:52;;;;;;;;;;;13.00;99.90;;;;;;4957799;28;20355;-86
2022/12/26 02:32:32;;;;;;;;;;;13.00;99.90;;;;;;4957710;28;19917;-86
2022/12/26 02:35:26;;;;;;;;;;;13.00;99.90;;;;;;4957936;28;20399;-86
2022/12/26 02:37:55;;;;;;;;;;;13.00;99.90;;;;;;4923205;28;20060;-86
2022/12/26 02:40:26;;;;;;;;;;;13.00;99.90;;;;;;4957785;28;19953;-86
2022/12/26 02:42:57;;;;;;;;;;;13.00;99.90;;;;;;4957560;28;19948;-86
2022/12/26 02:48:30;;;;;;;;;;;13.10;99.90;;;;;;4975306;28;20007;-86
2022/12/26 03:14:03;;;;;;;;;;;13.30;99.90;;;;;;4974969;28;20306;-87
2022/12/26 03:19:14;;;;;;;;;;;13.20;99.90;;;;;;4974839;28;20278;-87
2022/12/26 03:21:41;;;;;;;;;;;13.20;99.90;;;;;;4956802;28;19992;-87
2022/12/26 03:24:09;;;;;;;;;;;13.10;99.90;;;;;;4957098;28;19914;-88
2022/12/26 03:26:39;;;;;;;;;;;12.80;99.90;;;;;;4957043;28;20560;-88
2022/12/26 03:32:05;;;;;;;;;;;12.40;99.90;;;;;;4974637;28;19920;-86
2022/12/26 03:34:31;;;;;;;;;;;12.40;99.90;;;;;;4957876;28;19920;-85
2022/12/26 03:37:08;;;;;;;;;;;12.30;99.90;;;;;;4957285;28;19910;-85
2022/12/26 04:20:29;;;;;;;;;;;11.60;99.90;;;;;;4974665;28;20273;-86
2022/12/26 04:45:35;;;;;;;;;;;11.90;99.90;;;;;;4977763;28;19917;-88
2022/12/26 04:50:51;;;;;;;;;;;11.90;99.90;;;;;;4977146;28;20012;-88
2022/12/26 04:53:18;;;;;;;;;;;12.00;99.90;;;;;;4959783;28;20392;-86
2022/12/26 04:55:43;;;;;;;;;;;12.00;99.90;;;;;;4977054;28;19997;-86
2022/12/26 04:58:09;;;;;;;;;;;12.10;99.90;;;;;;4959790;28;20400;-88
2022/12/26 05:00:34;;;;;;;;;;;12.10;99.90;;;;;;4959655;28;19916;-88
2022/12/26 05:11:18;;;;;;;;;;;12.00;99.90;;;;;;4976597;28;19961;-87
2022/12/26 05:13:43;;;;;;;;;;;12.00;99.90;;;;;;4959767;28;19914;-88
2022/12/26 05:29:54;;;;;;;;;;;11.70;99.90;;;;;;4976499;28;19921;-87
2022/12/26 05:35:04;;;;;;;;;;;11.60;99.90;;;;;;4976774;28;20279;-88
2022/12/26 05:37:29;;;;;;;;;;;11.60;99.90;;;;;;4976311;28;19910;-87
2022/12/26 05:39:55;;;;;;;;;;;11.60;99.90;;;;;;4958948;28;19916;-87
2022/12/26 05:42:23;;;;;;;;;;;11.60;99.90;;;;;;4958690;28;19914;-88
2022/12/26 05:44:49;;;;;;;;;;;11.50;99.90;;;;;;4976099;28;20008;-87
2022/12/26 05:47:14;;;;;;;;;;;11.50;99.90;;;;;;4958841;28;20377;-88
2022/12/26 05:49:40;;;;;;;;;;;11.50;99.90;;;;;;4958658;28;19925;-88
2022/12/26 05:52:05;;;;;;;;;;;11.60;99.90;;;;;;4958481;28;19910;-88
2022/12/26 05:54:31;;;;;;;;;;;11.60;99.90;;;;;;4976186;28;20261;-88
2022/12/26 05:56:56;;;;;;;;;;;11.60;99.90;;;;;;4958718;28;19910;-89
2022/12/26 05:59:22;;;;;;;;;;;11.60;99.90;;;;;;4958641;28;19973;-89
2022/12/26 06:01:47;;;;;;;;;;;11.50;99.90;;;;;;4958377;28;19910;-87
2022/12/26 06:04:15;;;;;;;;;;;11.50;99.90;;;;;;4958508;28;19972;-88
2022/12/26 06:06:40;;;;;;;;;;;11.50;99.90;;;;;;4958461;28;19937;-88
2022/12/26 06:09:06;;;;;;;;;;;11.40;99.90;;;;;;4958377;28;19911;-88
2022/12/26 06:11:31;;;;;;;;;;;11.40;99.90;;;;;;4958025;28;19914;-88
2022/12/26 06:13:57;;;;;;;;;;;11.40;99.90;;;;;;4958442;28;19910;-88
2022/12/26 06:16:23;;;;;;;;;;;11.30;99.90;;;;;;4958304;28;19964;-87
2022/12/26 06:18:48;;;;;;;;;;;11.30;99.90;;;;;;4958372;28;19968;-87
2022/12/26 06:21:18;;;;;;;;;;;11.30;99.90;;;;;;4958090;28;19915;-88
2022/12/26 06:23:52;;;;;;;;;;;11.20;99.90;;;;;;4958625;28;19953;-87
2022/12/26 06:26:31;;;;;;;;;;;11.20;99.90;;;;;;4958044;28;19933;-87
2022/12/26 06:29:00;;;;;;;;;;;11.20;99.90;;;;;;4958013;28;19910;-87
2022/12/26 06:31:27;;;;;;;;;;;11.20;99.90;;;;;;4957683;28;19914;-88
2022/12/26 06:34:09;;;;;;;;;;;11.10;99.90;;;;;;4958033;28;20414;-88
2022/12/26 06:36:38;;;;;;;;;;;11.20;99.90;;;;;;4957895;28;20016;-88
2022/12/26 06:39:03;;;;;;;;;;;11.10;99.90;;;;;;4975113;28;19911;-88
2022/12/26 06:41:36;;;;;;;;;;;11.20;99.90;;;;;;4957536;28;19917;-88
2022/12/26 06:44:02;;;;;;;;;;;11.20;99.90;;;;;;4957705;28;19911;-89
2022/12/26 06:46:27;;;;;;;;;;;11.20;99.90;;;;;;4957768;28;20272;-88
2022/12/26 06:49:00;;;;;;;;;;;11.20;99.90;;;;;;4975047;28;19910;-88
2022/12/26 06:51:27;;;;;;;;;;;11.20;99.90;;;;;;4957099;28;20009;-88
2022/12/26 06:53:53;;;;;;;;;;;11.30;99.90;;;;;;4957486;28;20415;-88
2022/12/26 06:56:21;;;;;;;;;;;11.30;99.90;;;;;;4957499;28;19961;-87
2022/12/26 06:58:46;;;;;;;;;;;11.30;99.90;;;;;;4957561;28;19941;-88
2022/12/26 07:01:14;;;;;;;;;;;11.20;99.90;;;;;;4957051;28;19964;-88
2022/12/26 07:03:39;;;;;;;;;;;11.30;99.90;;;;;;4974691;28;19910;-88
2022/12/26 07:06:09;;;;;;;;;;;11.30;99.90;;;;;;4956838;28;20368;-87
2022/12/26 07:08:35;;;;;;;;;;;11.30;99.90;;;;;;4957268;28;19910;-88
2022/12/26 07:11:00;;;;;;;;;;;11.20;99.90;;;;;;4956935;28;19918;-88
2022/12/26 07:13:26;;;;;;;;;;;11.20;99.90;;;;;;4957214;28;20005;-88
2022/12/26 07:15:57;;;;;;;;;;;11.30;99.90;;;;;;4974527;28;19993;-88
2022/12/26 07:18:23;;;;;;;;;;;11.30;99.90;;;;;;4957371;28;20458;-88
2022/12/26 07:20:49;;;;;;;;;;;11.20;99.90;;;;;;4956936;28;20013;-91
2022/12/26 07:23:17;;;;;;;;;;;11.20;99.90;;;;;;4957258;28;19966;-88
2022/12/26 07:25:45;;;;;;;;;;;11.20;99.90;;;;;;4957144;28;19914;-88
2022/12/26 07:28:13;;;;;;;;;;;11.30;99.90;;;;;;4956913;28;19951;-87
2022/12/26 07:30:38;;;;;;;;;;;11.20;99.90;;;;;;4956668;28;19921;-88
2022/12/26 07:33:04;;;;;;;;;;;11.20;99.90;;;;;;4974090;28;19910;-87
2022/12/26 07:35:29;;;;;;;;;;;11.20;99.90;;;;;;4957035;28;19910;-88
2022/12/26 07:37:55;;;;;;;;;;;11.10;99.90;;;;;;4957043;28;19958;-88
2022/12/26 07:40:20;;;;;;;;;;;11.00;99.90;;;;;;4958286;28;19953;-87
2022/12/26 07:42:46;;;;;;;;;;;11.00;99.90;;;;;;4957735;28;19910;-86
2022/12/26 07:45:11;;;;;;;;;;;10.90;99.90;;;;;;4974612;28;19911;-87
2022/12/26 07:47:36;;;;;;;;;;;11.00;99.90;;;;;;4975300;28;19997;-88
2022/12/26 07:50:03;;;;;;;;;;;10.90;99.90;;;;;;4997914;23;19926;-84
2022/12/26 07:52:28;;;;;;;;;;;10.90;99.90;;;;;;5016692;28;19928;-85
2022/12/26 07:54:54;;;;;;;;;;;10.90;99.90;;;;;;5017357;28;20290;-83
2022/12/26 07:57:19;;;;;;;;;;;10.90;99.90;;;;;;5018061;28;19944;-85
2022/12/26 07:59:45;;;;;;;;;;;10.90;99.90;;;;;;5015227;28;19909;-83
2022/12/26 08:02:10;;;;;;;;;;;10.90;99.90;;;;;;4997440;28;20434;-83
2022/12/26 08:04:36;;;;;;;;;;;10.90;99.90;;;;;;4997816;28;19960;-85
2022/12/26 08:07:01;;;;;;;;;;;10.90;99.90;;;;;;5019753;28;19917;-84
2022/12/26 08:09:27;;;;;;;;;;;10.80;99.90;;;;;;4994750;28;19914;-83
2022/12/26 08:11:52;;;;;;;;;;;10.90;99.90;;;;;;5003671;28;19914;-84
2022/12/26 08:14:17;;;;;;;;;;;10.80;99.90;;;;;;4996519;28;19914;-83
2022/12/26 08:16:43;;;;;;;;;;;10.90;99.90;;;;;;4994458;28;19910;-84
2022/12/26 08:19:09;;;;;;;;;;;10.90;99.90;;;;;;4997132;28;20365;-82
2022/12/26 08:21:35;;;;;;;;;;;10.90;99.90;;;;;;4998174;28;20417;-82
2022/12/26 08:24:00;;;;;;;;;;;11.00;99.90;;;;;;4999210;28;19917;-84
2022/12/26 08:26:26;;;;;;;;;;;11.00;99.90;;;;;;4999843;28;20375;-83
2022/12/26 08:28:51;;;;;;;;;;;11.10;99.90;;;;;;4997099;28;19909;-83
2022/12/26 08:31:18;;;;;;;;;;;11.20;99.90;;;;;;4996770;28;19913;-85
2022/12/26 08:33:43;;;;;;;;;;;11.10;99.90;;;;;;4997565;28;19995;-84
2022/12/26 08:36:11;;;;;;;;;;;11.10;99.90;;;;;;4999049;28;20350;-84
2022/12/26 08:38:37;;;;;;;;;;;11.20;99.90;;;;;;4999422;28;19914;-83
2022/12/26 08:41:03;;;;;;;;;;;11.10;99.90;;;;;;4996902;28;19914;-83
2022/12/26 08:43:28;;;;;;;;;;;11.20;99.90;;;;;;4997244;28;20433;-83
2022/12/26 08:46:01;;;;;;;;;;;11.20;99.90;;;;;;4996576;28;19957;-83
2022/12/26 08:48:27;;;;;;;;;;;11.30;99.90;;;;;;4997169;28;19945;-84
2022/12/26 08:51:03;;;;;;;;;;;11.30;99.90;;;;;;4996911;28;19968;-82
2022/12/26 08:53:31;;;;;;;;;;;11.30;99.90;;;;;;4998848;28;19937;-84
2022/12/26 08:55:57;;;;;;;;;;;11.40;99.90;;;;;;4997421;28;19914;-83
2022/12/26 08:58:23;;;;;;;;;;;11.50;99.90;;;;;;4998023;28;20371;-83
2022/12/26 09:00:48;;;;;;;;;;;11.50;99.90;;;;;;4997797;28;19914;-83
2022/12/26 09:03:14;;;;;;;;;;;11.50;99.90;;;;;;4997153;28;19917;-83
2022/12/26 09:05:39;;;;;;;;;;;11.60;99.90;;;;;;4997623;28;19909;-83
2022/12/26 09:08:05;;;;;;;;;;;11.60;99.90;;;;;;4997956;28;19910;-82
2022/12/26 09:10:31;;;;;;;;;;;11.60;99.90;;;;;;4997864;28;20276;-85
2022/12/26 09:12:57;;;;;;;;;;;11.60;99.90;;;;;;4995956;28;19945;-84
2022/12/26 09:15:22;;;;;;;;;;;11.70;99.90;;;;;;4997531;28;19918;-83
2022/12/26 09:17:51;;;;;;;;;;;11.70;99.90;;;;;;4996447;28;20376;-83
2022/12/26 09:20:16;;;;;;;;;;;11.80;99.90;;;;;;4996234;28;19949;-84
2022/12/26 09:22:51;;;;;;;;;;;11.80;99.90;;;;;;4995332;28;20331;-83
2022/12/26 09:25:21;;;;;;;;;;;11.90;99.90;;;;;;4997030;28;20331;-84
2022/12/26 09:27:47;;;;;;;;;;;12.00;99.90;;;;;;4996419;28;19964;-84
2022/12/26 09:30:12;;;;;;;;;;;12.10;99.90;;;;;;4997236;28;19914;-82
2022/12/26 09:32:38;;;;;;;;;;;12.10;99.90;;;;;;4995445;28;20413;-83
2022/12/26 09:35:03;;;;;;;;;;;12.10;99.90;;;;;;4998521;28;19980;-83
2022/12/26 09:37:29;;;;;;;;;;;12.10;99.90;;;;;;4995339;28;20335;-85
2022/12/26 09:39:54;;;;;;;;;;;12.10;99.90;;;;;;4996321;28;19910;-85
2022/12/26 09:42:42;;;;;;;;;;;12.10;99.90;;;;;;4998802;28;19998;-85
2022/12/26 09:45:07;;;;;;;;;;;12.10;99.90;;;;;;5016977;28;19917;-86
2022/12/26 09:47:34;;;;;;;;;;;12.00;99.90;;;;;;4999753;28;20012;-85
2022/12/26 09:50:03;;;;;;;;;;;12.10;99.90;;;;;;4998659;28;20358;-85
2022/12/26 09:52:36;;;;;;;;;;;12.00;99.90;;;;;;4999273;28;19998;-85
2022/12/26 09:55:15;;;;;;;;;;;12.10;99.90;;;;;;4998990;28;19910;-85
2022/12/26 09:57:42;;;;;;;;;;;12.20;99.90;;;;;;4999635;28;19914;-84
2022/12/26 10:00:31;;;;;;;;;;;12.10;99.90;;;;;;5006932;28;19913;-85
2022/12/26 10:02:57;;;;;;;;;;;12.10;99.90;;;;;;4993288;28;19909;-85
2022/12/26 10:05:27;;;;;;;;;;;12.20;99.90;;;;;;4997917;28;19910;-85
2022/12/26 10:07:56;;;;;;;;;;;12.20;99.90;;;;;;4999320;28;20279;-85
2022/12/26 10:10:30;;;;;;;;;;;12.30;99.90;;;;;;4996151;28;20406;-84
2022/12/26 10:12:58;;;;;;;;;;;12.30;99.90;;;;;;4993140;28;20353;-85
2022/12/26 10:15:27;;;;;;;;;;;12.30;99.90;;;;;;4978931;28;19914;-84
2022/12/26 10:18:03;;;;;;;;;;;12.30;99.90;;;;;;4995923;28;19910;-85
2022/12/26 10:20:38;;;;;;;;;;;12.50;99.90;;;;;;4978675;28;19921;-85
2022/12/26 10:23:16;;;;;;;;;;;12.60;99.90;;;;;;4995549;28;19946;-84
2022/12/26 10:25:59;;;;;;;;;;;12.60;99.90;;;;;;4978125;28;20302;-83
2022/12/26 10:28:25;;;;;;;;;;;12.50;99.90;;;;;;4978005;28;19917;-84
2022/12/26 10:30:51;;;;;;;;;;;12.50;99.90;;;;;;4977957;28;19914;-85
2022/12/26 10:33:19;;;;;;;;;;;12.50;99.90;;;;;;4995271;28;19917;-85
2022/12/26 10:35:45;;;;;;;;;;;12.50;99.90;;;;;;4978178;28;19942;-84
2022/12/26 10:38:11;;;;;;;;;;;12.50;99.90;;;;;;4977956;28;19910;-84
2022/12/26 10:40:39;;;;;;;;;;;12.40;99.90;;;;;;4977100;28;19914;-84
2022/12/26 10:43:21;;;;;;;;;;;12.50;99.90;;;;;;5004334;28;19917;-85
2022/12/26 10:46:08;;;;;;;;;;;12.50;99.90;;;;;;5001570;28;19909;-85
2022/12/26 10:48:34;;;;;;;;;;;12.50;99.90;;;;;;4997144;28;19909;-84
2022/12/26 10:50:59;;;;;;;;;;;12.50;99.90;;;;;;5015367;28;19917;-84
2022/12/26 10:53:25;;;;;;;;;;;12.60;99.90;;;;;;5001493;28;19909;-85
2022/12/26 10:55:50;;;;;;;;;;;12.60;99.90;;;;;;5000530;28;19916;-84
2022/12/26 10:58:21;;;;;;;;;;;12.60;99.90;;;;;;4998302;28;19916;-84
2022/12/26 11:00:47;;;;;;;;;;;12.70;99.90;;;;;;5003421;28;19910;-85
2022/12/26 11:03:14;;;;;;;;;;;12.90;99.90;;;;;;4999725;28;19910;-85
2022/12/26 11:05:44;;;;;;;;;;;12.90;99.90;;;;;;4981839;28;19917;-83
2022/12/26 11:08:18;;;;;;;;;;;13.00;99.90;;;;;;5003984;28;19915;-84
2022/12/26 11:10:48;;;;;;;;;;;13.00;99.90;;;;;;4993304;28;19936;-83
2022/12/26 11:13:19;;;;;;;;;;;13.00;99.90;;;;;;4994630;28;20334;-82
2022/12/26 11:15:49;;;;;;;;;;;13.00;99.90;;;;;;4993881;28;20295;-83
2022/12/26 11:18:24;;;;;;;;;;;12.90;99.90;;;;;;5001041;28;19911;-82
2022/12/26 11:20:50;;;;;;;;;;;12.80;99.90;;;;;;4998068;28;19956;-81
2022/12/26 11:23:26;;;;;;;;;;;12.90;99.90;;;;;;4998787;28;20012;-82
2022/12/26 11:25:56;;;;;;;;;;;13.10;99.90;;;;;;4997500;28;19916;-83
2022/12/26 11:28:27;;;;;;;;;;;13.20;99.90;;;;;;5014200;28;19916;-83
2022/12/26 11:30:52;;;;;;;;;;;13.30;99.90;;;;;;4979651;28;19921;-84
2022/12/26 11:33:47;;;;;;;;;;;13.20;99.90;;;;;;4994686;28;19913;-86
2022/12/26 11:36:12;;;;;;;;;;;13.20;99.90;;;;;;4987041;28;19959;-86
2022/12/26 11:38:44;;;;;;;;;;;13.00;99.90;;;;;;4995592;28;19917;-85
2022/12/26 11:41:31;;;;;;;;;;;12.90;99.90;;;;;;4995549;28;19913;-85
2022/12/26 11:44:09;;;;;;;;;;;13.30;99.90;;;;;;4996456;28;19909;-84
2022/12/26 11:46:41;;;;;;;;;;;13.40;99.90;;;;;;4995489;28;19913;-85
2022/12/26 11:49:15;;;;;;;;;;;13.50;99.90;;;;;;4995114;28;19909;-85
2022/12/26 11:51:44;;;;;;;;;;;13.90;99.90;;;;;;5012148;28;19918;-87
2022/12/26 11:54:20;;;;;;;;;;;14.00;99.90;;;;;;4994923;28;19909;-86
2022/12/26 11:56:46;;;;;;;;;;;13.80;99.90;;;;;;4997735;28;19917;-84
2022/12/26 11:59:22;;;;;;;;;;;13.70;99.90;;;;;;5016145;28;19910;-85
2022/12/26 12:02:01;;;;;;;;;;;13.50;99.90;;;;;;4999951;28;20298;-85
2022/12/26 12:04:26;;;;;;;;;;;13.30;99.90;;;;;;4998644;28;20011;-84
2022/12/26 12:07:28;;;;;;;;;;;13.20;99.90;;;;;;5025983;28;19949;-85
2022/12/26 12:10:00;;;;;;;;;;;13.00;99.90;;;;;;5034822;28;19909;-85
2022/12/26 12:12:41;;;;;;;;;;;13.00;99.90;;;;;;4999924;28;19960;-84
2022/12/26 12:15:12;;;;;;;;;;;12.90;99.90;;;;;;4994736;28;19916;-86
2022/12/26 12:17:41;;;;;;;;;;;12.80;99.90;;;;;;4995143;28;19917;-86
2022/12/26 12:20:15;;;;;;;;;;;12.60;99.90;;;;;;4995862;28;19910;-85
2022/12/26 12:22:53;;;;;;;;;;;12.50;99.90;;;;;;4995699;28;19910;-83
2022/12/26 12:25:23;;;;;;;;;;;12.60;99.90;;;;;;4995517;28;19913;-85
2022/12/26 12:27:51;;;;;;;;;;;12.50;99.90;;;;;;4996169;28;20482;-84
2022/12/26 12:30:28;;;;;;;;;;;12.40;99.90;;;;;;4997245;28;19913;-84
2022/12/26 12:33:03;;;;;;;;;;;12.30;99.90;;;;;;5015938;28;19914;-83
2022/12/26 12:35:47;;;;;;;;;;;12.30;99.90;;;;;;5000101;28;19910;-83
2022/12/26 12:38:31;;;;;;;;;;;12.30;99.90;;;;;;4994134;28;19937;-83
2022/12/26 12:41:03;;;;;;;;;;;12.40;99.90;;;;;;4995592;28;20047;-83
2022/12/26 12:43:31;;;;;;;;;;;12.30;99.90;;;;;;4996282;28;19920;-83
2022/12/26 12:46:09;;;;;;;;;;;12.40;99.90;;;;;;5013425;28;19910;-82
2022/12/26 12:48:34;;;;;;;;;;;12.60;99.90;;;;;;4976653;28;20379;-82
2022/12/26 12:51:00;;;;;;;;;;;12.60;99.90;;;;;;4991279;28;19918;-82
2022/12/26 12:53:31;;;;;;;;;;;12.70;99.90;;;;;;4991354;28;19953;-83
2022/12/26 12:56:16;;;;;;;;;;;12.70;99.90;;;;;;4998376;28;19910;-83
2022/12/26 12:58:50;;;;;;;;;;;12.70;99.90;;;;;;4994921;28;20364;-82
2022/12/26 13:01:24;;;;;;;;;;;12.70;99.90;;;;;;4994785;28;20367;-82
2022/12/26 13:03:57;;;;;;;;;;;12.70;99.90;;;;;;4993751;28;19917;-85
2022/12/26 13:06:38;;;;;;;;;;;12.60;99.90;;;;;;5013648;28;19909;-82
2022/12/26 13:09:15;;;;;;;;;;;12.50;99.90;;;;;;5044946;28;19924;-82
2022/12/26 13:11:44;;;;;;;;;;;12.50;99.90;;;;;;5013379;28;19932;-83
2022/12/26 13:14:21;;;;;;;;;;;12.50;99.90;;;;;;5010290;28;20382;-82
2022/12/26 13:16:49;;;;;;;;;;;12.40;99.90;;;;;;5007458;28;19972;-82
2022/12/26 13:19:24;;;;;;;;;;;12.20;99.90;;;;;;5008196;28;19917;-83
2022/12/26 13:21:50;;;;;;;;;;;11.90;99.90;;;;;;5000095;28;20454;-84
2022/12/26 13:24:22;;;;;;;;;;;11.50;99.90;;;;;;5001434;28;19909;-85
2022/12/26 13:27:05;;;;;;;;;;;11.10;99.90;;;;;;5018602;28;20004;-85
2022/12/26 13:29:36;;;;;;;;;;;10.90;99.90;;;;;;5018818;28;19917;-86
2022/12/26 13:32:03;;;;;;;;;;;10.70;99.90;;;;;;5007032;28;20111;-84
2022/12/26 13:34:29;;;;;;;;;;;10.50;99.90;;;;;;5006152;28;19917;-84
2022/12/26 13:36:55;;;;;;;;;;;10.50;99.90;;;;;;5027516;28;19964;-85
2022/12/26 13:39:24;;;;;;;;;;;10.50;99.90;;;;;;5030379;28;19917;-84
2022/12/26 13:44:45;;;;;;;;;;;10.50;99.90;;;;;;5029179;28;19977;-85
2022/12/26 13:47:29;;;;;;;;;;;10.40;99.90;;;;;;5013300;28;19909;-85
2022/12/26 13:49:55;;;;;;;;;;;10.40;99.90;;;;;;5011759;28;19945;-85
2022/12/26 13:52:33;;;;;;;;;;;10.40;99.90;;;;;;5013329;23;19933;-81
2022/12/26 13:55:08;;;;;;;;;;;10.40;99.90;;;;;;4979428;28;19963;-81
2022/12/26 13:57:34;;;;;;;;;;;10.30;99.90;;;;;;4996964;28;19917;-80
2022/12/26 14:00:05;;;;;;;;;;;10.20;99.90;;;;;;4996326;28;19909;-80
2022/12/26 14:02:49;;;;;;;;;;;10.10;99.90;;;;;;4978637;28;19909;-80
2022/12/26 14:05:25;;;;;;;;;;;10.10;99.90;;;;;;4996177;28;19910;-80
2022/12/26 14:07:58;;;;;;;;;;;9.90;99.90;;;;;;4978629;28;19909;-80
2022/12/26 14:10:39;;;;;;;;;;;9.90;99.90;;;;;;4978548;28;19940;-80
2022/12/26 14:13:23;;;;;;;;;;;9.90;99.90;;;;;;4996225;28;19916;-80
2022/12/26 14:15:52;;;;;;;;;;;9.90;99.90;;;;;;4996320;28;19914;-81
2022/12/26 14:18:32;;;;;;;;;;;10.00;99.90;;;;;;4996217;28;20364;-81
2022/12/26 14:21:09;;;;;;;;;;;10.00;99.90;;;;;;4995883;28;19920;-81
2022/12/26 14:23:48;;;;;;;;;;;10.00;99.90;;;;;;4995999;28;19956;-81
2022/12/26 14:26:27;;;;;;;;;;;10.00;99.90;;;;;;4995148;28;19909;-80
2022/12/26 14:28:59;;;;;;;;;;;9.90;99.90;;;;;;4995045;28;19914;-81
2022/12/26 14:31:41;;;;;;;;;;;9.90;99.90;;;;;;4977092;28;19921;-79
2022/12/26 14:34:25;;;;;;;;;;;9.80;99.90;;;;;;4995166;28;19956;-79
2022/12/26 14:36:55;;;;;;;;;;;9.80;99.90;;;;;;4995113;28;20381;-79
2022/12/26 14:39:21;;;;;;;;;;;9.80;99.90;;;;;;4977552;28;20294;-81
2022/12/26 14:44:52;;;;;;;;;;;9.80;99.90;;;;;;4973796;28;19953;-80
2022/12/26 14:47:36;;;;;;;;;;;9.80;99.90;;;;;;4994693;28;20359;-79
2022/12/26 14:50:20;;;;;;;;;;;9.70;99.90;;;;;;4993958;28;19920;-80
2022/12/26 14:54:15;;;;;;;;;;;9.70;99.90;;;;;;5070690;27;19917;-81
2022/12/26 14:56:41;;;;;;;;;;;9.60;99.90;;;;;;5070527;28;19913;-80
2022/12/26 14:59:25;;;;;;;;;;;9.50;99.90;;;;;;5070034;28;20401;-82
2022/12/26 15:01:59;;;;;;;;;;;9.50;99.90;;;;;;5069544;28;19917;-81
2022/12/26 15:04:44;;;;;;;;;;;9.40;99.90;;;;;;5069991;28;19908;-82
2022/12/26 15:07:19;;;;;;;;;;;9.40;99.90;;;;;;5070061;28;19909;-81
2022/12/26 15:09:53;;;;;;;;;;;9.40;99.90;;;;;;5069975;28;19909;-82
2022/12/26 15:12:28;;;;;;;;;;;9.30;99.90;;;;;;5069342;28;19916;-80
2022/12/26 15:15:12;;;;;;;;;;;9.30;99.90;;;;;;5069703;28;19971;-80
2022/12/26 15:17:47;;;;;;;;;;;9.20;99.90;;;;;;5069523;28;19909;-81
2022/12/26 15:20:21;;;;;;;;;;;9.10;99.90;;;;;;5069503;28;20366;-81
2022/12/26 15:22:47;;;;;;;;;;;9.00;99.90;;;;;;5067802;28;19920;-81
2022/12/26 15:25:15;;;;;;;;;;;9.10;99.90;;;;;;5069545;28;19908;-82
2022/12/26 15:27:40;;;;;;;;;;;9.00;99.90;;;;;;5069331;28;19908;-82
2022/12/26 15:30:13;;;;;;;;;;;9.00;99.90;;;;;;5069366;28;19909;-80
2022/12/26 15:32:53;;;;;;;;;;;9.00;99.90;;;;;;5066327;28;19909;-83
2022/12/26 15:35:59;;;;;;;;;;;8.90;99.90;;;;;;5055110;28;19912;-82
2022/12/26 15:38:31;;;;;;;;;;;8.90;99.90;;;;;;5107041;28;19908;-83
2022/12/26 15:40:57;;;;;;;;;;;8.80;99.90;;;;;;5089844;28;19926;-82
2022/12/26 15:43:28;;;;;;;;;;;8.90;99.90;;;;;;5076864;28;20526;-83
2022/12/26 15:45:54;;;;;;;;;;;8.90;99.90;;;;;;5068635;28;19970;-83
2022/12/26 15:48:19;;;;;;;;;;;8.90;99.90;;;;;;5084540;28;19909;-83
2022/12/26 15:51:08;;;;;;;;;;;8.80;99.90;;;;;;5084387;28;19908;-82
2022/12/26 15:53:40;;;;;;;;;;;8.80;99.90;;;;;;5100823;28;19965;-84
2022/12/26 15:56:05;;;;;;;;;;;8.80;99.90;;;;;;5088909;28;19908;-84
2022/12/26 15:58:42;;;;;;;;;;;8.80;99.90;;;;;;5087974;28;20281;-83
2022/12/26 16:01:09;;;;;;;;;;;8.70;99.90;;;;;;5087507;28;20362;-83
2022/12/26 16:03:50;;;;;;;;;;;8.80;99.90;;;;;;5085428;28;19916;-83
2022/12/26 16:06:24;;;;;;;;;;;8.80;99.90;;;;;;5075117;28;19916;-80
2022/12/26 16:08:57;;;;;;;;;;;8.80;99.90;;;;;;5075051;28;19909;-81
2022/12/26 16:11:24;;;;;;;;;;;8.80;99.90;;;;;;5075135;28;19909;-81
2022/12/26 16:14:00;;;;;;;;;;;8.80;99.90;;;;;;5074035;28;19908;-82
2022/12/26 16:16:30;;;;;;;;;;;8.80;99.90;;;;;;5075206;28;19954;-81
2022/12/26 16:18:56;;;;;;;;;;;8.70;99.90;;;;;;5075523;28;19912;-82
2022/12/26 16:24:08;;;;;;;;;;;8.70;99.90;;;;;;5075409;28;20391;-82
2022/12/26 16:26:39;;;;;;;;;;;8.60;99.90;;;;;;5075357;28;19913;-82
2022/12/26 16:29:05;;;;;;;;;;;8.60;99.90;;;;;;5075111;28;19958;-81
2022/12/26 16:31:30;;;;;;;;;;;8.50;99.90;;;;;;5074875;28;19913;-82
2022/12/26 16:33:57;;;;;;;;;;;8.50;99.90;;;;;;5075273;28;19913;-81
2022/12/26 16:36:23;;;;;;;;;;;8.50;99.90;;;;;;5075095;28;19917;-81
2022/12/26 16:38:49;;;;;;;;;;;8.50;99.90;;;;;;5074999;28;20358;-81
2022/12/26 16:41:18;;;;;;;;;;;8.40;99.90;;;;;;5074909;28;19908;-81
2022/12/26 16:43:43;;;;;;;;;;;8.30;99.90;;;;;;5075105;28;19956;-80
2022/12/26 16:46:10;;;;;;;;;;;8.30;99.90;;;;;;5074993;28;19915;-81
2022/12/26 16:48:35;;;;;;;;;;;8.30;99.90;;;;;;5074825;28;19908;-81
2022/12/26 16:51:02;;;;;;;;;;;8.20;99.90;;;;;;5073187;28;19908;-80